Terminal Aerodrome Forecast
Issued by NWS

Home | Current Version | Previous Version | Text Only | Print | Product List | Glossary On
Versions: 1 2 3 4 5 6 7 8 9 10 11 12 13 14 15 16
000
FTUS42 KTBW 160500
TAFPIE
TAF
KPIE 160533Z 1606/1706 34010KT P6SM SCT025 SCT250
     FM161400 05012G18KT P6SM FEW250
     FM170200 07015G22KT P6SM SCT030=

USA.gov is the U.S. government's official web portal to all federal, state and local government web resources and services.